Terminal Aerodrome Forecast
Issued by NWS Jackson, KY

Home | Current Version | Previous Version | Text Only | Print | Product List | Glossary On
Versions: 1 2 3 4 5 6 7 8 9 10 11 12 13 14
297
FTUS43 KJKL 252001 AAA
TAFLOZ
TAF AMD
KLOZ 252001Z 2520/2618 22008KT P6SM SCT060 BKN120
      TEMPO 2520/2521 4SM RA BKN045
     FM260100 18003KT P6SM SCT150=

USA.gov is the U.S. government's official web portal to all federal, state and local government web resources and services.